West End, Texas
Current Conditions -  °F | °C
As of 1:55 PM on Thursday 23 Oct 2014 (Local Time) from KARM Reporting Station
Clear Clear  
Wind Chill: 25°   Ceiling: Unl
Heat Index: 26°   Visibility: 10mi
Dew Point: 14°   Wind: 5mph
Humidity: 48%   Direction: 60°ENE
Pressure: 30.1"   Gusts: NA
Location:  29.1916°N, 96.2212°W
Report Text: KARM 231855Z AUTO 06004KT 10SM CLR 25/14 A3010 RMK AO2 T02530137
Loading
Personal Weather Stations






























Interactive Weather Map
Tropical Storm Tracking
New forecast layout! Learn more

10-Day Weather Forecast

Advertisements
Track Severe Weather on mobile